sensor_id;sensor_type;location;lat;lon;timestamp;P1;durP1;ratioP1;P2;durP2;ratioP2
4986;SDS011;12674;51.500;7.552;2023-03-21T00:01:23;20.73;;;5.33;;
4986;SDS011;12674;51.500;7.552;2023-03-21T00:03:26;12.87;;;5.10;;
4986;SDS011;12674;51.500;7.552;2023-03-21T00:05:31;17.50;;;6.20;;
4986;SDS011;12674;51.500;7.552;2023-03-21T00:07:34;22.73;;;5.63;;
4986;SDS011;12674;51.500;7.552;2023-03-21T00:09:37;19.30;;;7.00;;
4986;SDS011;12674;51.500;7.552;2023-03-21T00:11:41;18.70;;;6.17;;
4986;SDS011;12674;51.500;7.552;2023-03-21T00:13:44;14.80;;;5.57;;
4986;SDS011;12674;51.500;7.552;2023-03-21T00:15:48;18.93;;;5.27;;
4986;SDS011;12674;51.500;7.552;2023-03-21T00:18:15;12.60;;;5.60;;
4986;SDS011;12674;51.500;7.552;2023-03-21T00:20:18;17.37;;;5.60;;
4986;SDS011;12674;51.500;7.552;2023-03-21T00:22:24;16.00;;;5.10;;
4986;SDS011;12674;51.500;7.552;2023-03-21T00:24:28;14.70;;;5.10;;
4986;SDS011;12674;51.500;7.552;2023-03-21T00:26:31;26.00;;;6.63;;
4986;SDS011;12674;51.500;7.552;2023-03-21T00:28:36;21.73;;;6.27;;
4986;SDS011;12674;51.500;7.552;2023-03-21T00:30:39;22.20;;;5.43;;
4986;SDS011;12674;51.500;7.552;2023-03-21T00:32:42;28.13;;;6.40;;
4986;SDS011;12674;51.500;7.552;2023-03-21T00:34:56;23.07;;;6.40;;
4986;SDS011;12674;51.500;7.552;2023-03-21T00:37:20;17.10;;;5.60;;
4986;SDS011;12674;51.500;7.552;2023-03-21T00:39:22;14.60;;;5.37;;
4986;SDS011;12674;51.500;7.552;2023-03-21T00:41:30;19.97;;;6.53;;
4986;SDS011;12674;51.500;7.552;2023-03-21T00:43:50;23.50;;;6.00;;
4986;SDS011;12674;51.500;7.552;2023-03-21T00:45:56;13.70;;;6.30;;
4986;SDS011;12674;51.500;7.552;2023-03-21T00:48:00;23.93;;;5.73;;
4986;SDS011;12674;51.500;7.552;2023-03-21T00:50:03;11.73;;;5.30;;
4986;SDS011;12674;51.500;7.552;2023-03-21T00:52:08;12.83;;;5.60;;
4986;SDS011;12674;51.500;7.552;2023-03-21T00:54:25;16.10;;;5.20;;
4986;SDS011;12674;51.500;7.552;2023-03-21T00:56:28;17.17;;;6.40;;
4986;SDS011;12674;51.500;7.552;2023-03-21T00:58:32;21.00;;;5.70;;
4986;SDS011;12674;51.500;7.552;2023-03-21T01:00:36;15.90;;;5.57;;
4986;SDS011;12674;51.500;7.552;2023-03-21T01:02:40;17.77;;;6.17;;
4986;SDS011;12674;51.500;7.552;2023-03-21T01:05:05;16.17;;;5.67;;
4986;SDS011;12674;51.500;7.552;2023-03-21T01:07:09;14.37;;;5.90;;
4986;SDS011;12674;51.500;7.552;2023-03-21T01:09:13;15.43;;;5.80;;
4986;SDS011;12674;51.500;7.552;2023-03-21T01:11:19;15.67;;;5.57;;
4986;SDS011;12674;51.500;7.552;2023-03-21T01:13:23;13.97;;;5.80;;
4986;SDS011;12674;51.500;7.552;2023-03-21T01:15:27;15.10;;;5.20;;
4986;SDS011;12674;51.500;7.552;2023-03-21T01:17:31;12.47;;;5.63;;
4986;SDS011;12674;51.500;7.552;2023-03-21T01:19:34;12.83;;;5.50;;
4986;SDS011;12674;51.500;7.552;2023-03-21T01:21:52;22.80;;;6.63;;
4986;SDS011;12674;51.500;7.552;2023-03-21T01:23:56;17.60;;;6.43;;
4986;SDS011;12674;51.500;7.552;2023-03-21T01:25:59;14.40;;;6.83;;
4986;SDS011;12674;51.500;7.552;2023-03-21T01:28:02;15.83;;;6.37;;
4986;SDS011;12674;51.500;7.552;2023-03-21T01:30:06;14.90;;;6.10;;
4986;SDS011;12674;51.500;7.552;2023-03-21T01:32:20;13.30;;;5.50;;
4986;SDS011;12674;51.500;7.552;2023-03-21T01:34:25;25.97;;;5.80;;
4986;SDS011;12674;51.500;7.552;2023-03-21T01:36:29;13.07;;;6.40;;
4986;SDS011;12674;51.500;7.552;2023-03-21T01:38:37;20.67;;;6.50;;
4986;SDS011;12674;51.500;7.552;2023-03-21T01:40:42;12.37;;;5.97;;
4986;SDS011;12674;51.500;7.552;2023-03-21T01:42:54;17.90;;;5.90;;
4986;SDS011;12674;51.500;7.552;2023-03-21T01:44:59;15.80;;;5.77;;
4986;SDS011;12674;51.500;7.552;2023-03-21T01:47:15;17.93;;;5.60;;
4986;SDS011;12674;51.500;7.552;2023-03-21T01:49:39;10.77;;;5.60;;
4986;SDS011;12674;51.500;7.552;2023-03-21T01:51:55;20.47;;;5.90;;
4986;SDS011;12674;51.500;7.552;2023-03-21T01:54:13;16.13;;;6.07;;
4986;SDS011;12674;51.500;7.552;2023-03-21T01:56:21;16.33;;;5.80;;
4986;SDS011;12674;51.500;7.552;2023-03-21T01:58:35;16.77;;;6.70;;
4986;SDS011;12674;51.500;7.552;2023-03-21T02:00:55;16.87;;;5.87;;
4986;SDS011;12674;51.500;7.552;2023-03-21T02:03:09;19.43;;;5.90;;
4986;SDS011;12674;51.500;7.552;2023-03-21T02:05:43;12.00;;;5.40;;
4986;SDS011;12674;51.500;7.552;2023-03-21T02:07:51;13.90;;;6.20;;
4986;SDS011;12674;51.500;7.552;2023-03-21T02:09:56;21.53;;;6.50;;
4986;SDS011;12674;51.500;7.552;2023-03-21T02:12:00;18.10;;;6.13;;
4986;SDS011;12674;51.500;7.552;2023-03-21T02:14:05;10.83;;;5.43;;
4986;SDS011;12674;51.500;7.552;2023-03-21T02:16:32;15.53;;;5.67;;
4986;SDS011;12674;51.500;7.552;2023-03-21T02:18:43;15.50;;;5.13;;
4986;SDS011;12674;51.500;7.552;2023-03-21T02:21:07;16.73;;;6.80;;
4986;SDS011;12674;51.500;7.552;2023-03-21T02:25:57;14.37;;;7.40;;
4986;SDS011;12674;51.500;7.552;2023-03-21T02:28:24;16.27;;;6.00;;
4986;SDS011;12674;51.500;7.552;2023-03-21T02:30:34;23.80;;;6.77;;
4986;SDS011;12674;51.500;7.552;2023-03-21T02:32:58;17.37;;;6.80;;
4986;SDS011;12674;51.500;7.552;2023-03-21T02:37:45;18.33;;;6.43;;
4986;SDS011;12674;51.500;7.552;2023-03-21T02:40:06;13.57;;;5.70;;
4986;SDS011;12674;51.500;7.552;2023-03-21T02:42:12;17.97;;;6.03;;
4986;SDS011;12674;51.500;7.552;2023-03-21T02:44:20;18.70;;;8.30;;
4986;SDS011;12674;51.500;7.552;2023-03-21T02:46:26;18.90;;;6.80;;
4986;SDS011;12674;51.500;7.552;2023-03-21T02:48:48;16.73;;;6.67;;
4986;SDS011;12674;51.500;7.552;2023-03-21T02:50:56;22.50;;;7.03;;
4986;SDS011;12674;51.500;7.552;2023-03-21T02:53:02;18.73;;;7.13;;
4986;SDS011;12674;51.500;7.552;2023-03-21T02:55:08;19.53;;;6.20;;
4986;SDS011;12674;51.500;7.552;2023-03-21T02:57:23;19.37;;;6.27;;
4986;SDS011;12674;51.500;7.552;2023-03-21T02:59:40;15.50;;;6.10;;
4986;SDS011;12674;51.500;7.552;2023-03-21T03:01:57;22.43;;;7.00;;
4986;SDS011;12674;51.500;7.552;2023-03-21T03:04:01;21.17;;;6.57;;
4986;SDS011;12674;51.500;7.552;2023-03-21T03:06:07;13.70;;;6.93;;
4986;SDS011;12674;51.500;7.552;2023-03-21T03:11:05;14.90;;;8.00;;
4986;SDS011;12674;51.500;7.552;2023-03-21T03:13:15;25.17;;;7.27;;
4986;SDS011;12674;51.500;7.552;2023-03-21T03:15:28;21.93;;;7.40;;
4986;SDS011;12674;51.500;7.552;2023-03-21T03:17:40;15.50;;;7.00;;
4986;SDS011;12674;51.500;7.552;2023-03-21T03:19:53;20.20;;;7.80;;
4986;SDS011;12674;51.500;7.552;2023-03-21T03:22:17;25.07;;;8.27;;
4986;SDS011;12674;51.500;7.552;2023-03-21T03:24:24;19.03;;;8.47;;
4986;SDS011;12674;51.500;7.552;2023-03-21T03:26:32;21.73;;;7.63;;
4986;SDS011;12674;51.500;7.552;2023-03-21T03:28:37;21.67;;;7.30;;
4986;SDS011;12674;51.500;7.552;2023-03-21T03:30:48;17.43;;;7.57;;
4986;SDS011;12674;51.500;7.552;2023-03-21T03:33:11;18.60;;;7.17;;
4986;SDS011;12674;51.500;7.552;2023-03-21T03:35:17;22.70;;;8.27;;
4986;SDS011;12674;51.500;7.552;2023-03-21T03:37:23;20.03;;;7.70;;
4986;SDS011;12674;51.500;7.552;2023-03-21T03:39:32;16.47;;;7.77;;
4986;SDS011;12674;51.500;7.552;2023-03-21T03:41:39;18.93;;;8.33;;
4986;SDS011;12674;51.500;7.552;2023-03-21T03:44:08;14.20;;;7.53;;
4986;SDS011;12674;51.500;7.552;2023-03-21T03:46:20;16.40;;;8.50;;
4986;SDS011;12674;51.500;7.552;2023-03-21T03:48:26;18.40;;;7.47;;
4986;SDS011;12674;51.500;7.552;2023-03-21T03:50:34;20.93;;;7.17;;
4986;SDS011;12674;51.500;7.552;2023-03-21T03:52:45;20.73;;;9.50;;
4986;SDS011;12674;51.500;7.552;2023-03-21T03:54:59;19.53;;;8.73;;
4986;SDS011;12674;51.500;7.552;2023-03-21T03:57:07;14.53;;;8.23;;
4986;SDS011;12674;51.500;7.552;2023-03-21T03:59:13;17.53;;;7.67;;
4986;SDS011;12674;51.500;7.552;2023-03-21T04:01:40;15.73;;;7.77;;
4986;SDS011;12674;51.500;7.552;2023-03-21T04:03:43;20.90;;;7.80;;
4986;SDS011;12674;51.500;7.552;2023-03-21T04:05:57;14.43;;;8.37;;
4986;SDS011;12674;51.500;7.552;2023-03-21T04:08:00;19.27;;;8.37;;
4986;SDS011;12674;51.500;7.552;2023-03-21T04:10:11;16.93;;;7.80;;
4986;SDS011;12674;51.500;7.552;2023-03-21T04:12:15;18.63;;;8.50;;
4986;SDS011;12674;51.500;7.552;2023-03-21T04:14:34;18.10;;;8.97;;
4986;SDS011;12674;51.500;7.552;2023-03-21T04:16:46;12.63;;;7.80;;
4986;SDS011;12674;51.500;7.552;2023-03-21T04:18:49;39.83;;;9.60;;
4986;SDS011;12674;51.500;7.552;2023-03-21T04:20:55;16.73;;;8.17;;
4986;SDS011;12674;51.500;7.552;2023-03-21T04:23:01;23.17;;;9.20;;
4986;SDS011;12674;51.500;7.552;2023-03-21T04:25:05;20.10;;;8.60;;
4986;SDS011;12674;51.500;7.552;2023-03-21T04:27:11;19.97;;;8.30;;
4986;SDS011;12674;51.500;7.552;2023-03-21T04:29:17;19.97;;;8.30;;
4986;SDS011;12674;51.500;7.552;2023-03-21T04:31:44;17.63;;;7.87;;
4986;SDS011;12674;51.500;7.552;2023-03-21T04:33:51;19.80;;;7.97;;
4986;SDS011;12674;51.500;7.552;2023-03-21T04:35:54;19.50;;;8.60;;
4986;SDS011;12674;51.500;7.552;2023-03-21T04:38:03;22.83;;;9.30;;
4986;SDS011;12674;51.500;7.552;2023-03-21T04:40:07;14.87;;;8.67;;
4986;SDS011;12674;51.500;7.552;2023-03-21T04:42:16;16.50;;;9.13;;
4986;SDS011;12674;51.500;7.552;2023-03-21T04:44:21;26.63;;;9.80;;
4986;SDS011;12674;51.500;7.552;2023-03-21T04:46:24;20.97;;;9.17;;
4986;SDS011;12674;51.500;7.552;2023-03-21T04:48:29;22.07;;;9.20;;
4986;SDS011;12674;51.500;7.552;2023-03-21T04:50:34;21.83;;;9.70;;
4986;SDS011;12674;51.500;7.552;2023-03-21T04:52:37;20.80;;;8.70;;
4986;SDS011;12674;51.500;7.552;2023-03-21T04:54:40;21.87;;;9.37;;
4986;SDS011;12674;51.500;7.552;2023-03-21T04:56:44;27.10;;;9.23;;
4986;SDS011;12674;51.500;7.552;2023-03-21T04:58:49;24.60;;;10.10;;
4986;SDS011;12674;51.500;7.552;2023-03-21T05:00:52;18.07;;;8.97;;
4986;SDS011;12674;51.500;7.552;2023-03-21T05:02:57;28.13;;;9.97;;
4986;SDS011;12674;51.500;7.552;2023-03-21T05:05:01;21.33;;;9.60;;
4986;SDS011;12674;51.500;7.552;2023-03-21T05:07:04;22.23;;;9.40;;
4986;SDS011;12674;51.500;7.552;2023-03-21T05:09:07;27.37;;;10.27;;
4986;SDS011;12674;51.500;7.552;2023-03-21T05:11:11;18.03;;;9.10;;
4986;SDS011;12674;51.500;7.552;2023-03-21T05:13:14;23.97;;;8.30;;
4986;SDS011;12674;51.500;7.552;2023-03-21T05:15:19;14.23;;;8.20;;
4986;SDS011;12674;51.500;7.552;2023-03-21T05:17:22;20.40;;;9.50;;
4986;SDS011;12674;51.500;7.552;2023-03-21T05:19:26;17.80;;;9.10;;
4986;SDS011;12674;51.500;7.552;2023-03-21T05:21:37;20.10;;;8.33;;
4986;SDS011;12674;51.500;7.552;2023-03-21T05:23:48;20.70;;;10.00;;
4986;SDS011;12674;51.500;7.552;2023-03-21T05:25:55;20.77;;;9.50;;
4986;SDS011;12674;51.500;7.552;2023-03-21T05:28:08;23.00;;;9.43;;
4986;SDS011;12674;51.500;7.552;2023-03-21T05:30:13;23.00;;;9.70;;
4986;SDS011;12674;51.500;7.552;2023-03-21T05:32:21;20.90;;;8.97;;
4986;SDS011;12674;51.500;7.552;2023-03-21T05:34:24;25.70;;;9.50;;
4986;SDS011;12674;51.500;7.552;2023-03-21T05:36:28;19.93;;;8.57;;
4986;SDS011;12674;51.500;7.552;2023-03-21T05:38:35;18.97;;;7.97;;
4986;SDS011;12674;51.500;7.552;2023-03-21T05:40:45;19.57;;;8.27;;
4986;SDS011;12674;51.500;7.552;2023-03-21T05:42:48;22.80;;;8.23;;
4986;SDS011;12674;51.500;7.552;2023-03-21T05:44:55;16.23;;;8.10;;
4986;SDS011;12674;51.500;7.552;2023-03-21T05:47:03;24.03;;;8.30;;
4986;SDS011;12674;51.500;7.552;2023-03-21T05:49:20;15.50;;;8.10;;
4986;SDS011;12674;51.500;7.552;2023-03-21T05:51:28;13.10;;;7.80;;
4986;SDS011;12674;51.500;7.552;2023-03-21T05:53:32;16.93;;;8.03;;
4986;SDS011;12674;51.500;7.552;2023-03-21T05:55:35;19.10;;;7.80;;
4986;SDS011;12674;51.500;7.552;2023-03-21T05:57:42;26.47;;;7.73;;
4986;SDS011;12674;51.500;7.552;2023-03-21T06:00:12;15.27;;;6.73;;
4986;SDS011;12674;51.500;7.552;2023-03-21T06:02:16;21.53;;;8.00;;
4986;SDS011;12674;51.500;7.552;2023-03-21T06:04:22;14.70;;;7.00;;
4986;SDS011;12674;51.500;7.552;2023-03-21T06:06:26;20.00;;;7.90;;
4986;SDS011;12674;51.500;7.552;2023-03-21T06:08:32;21.33;;;8.23;;
4986;SDS011;12674;51.500;7.552;2023-03-21T06:10:35;12.23;;;6.80;;
4986;SDS011;12674;51.500;7.552;2023-03-21T06:12:40;27.10;;;9.27;;
4986;SDS011;12674;51.500;7.552;2023-03-21T06:14:59;16.70;;;7.90;;
4986;SDS011;12674;51.500;7.552;2023-03-21T06:17:07;24.80;;;7.77;;
4986;SDS011;12674;51.500;7.552;2023-03-21T06:19:16;21.30;;;7.47;;
4986;SDS011;12674;51.500;7.552;2023-03-21T06:21:41;17.00;;;7.50;;
4986;SDS011;12674;51.500;7.552;2023-03-21T06:23:44;15.00;;;8.00;;
4986;SDS011;12674;51.500;7.552;2023-03-21T06:25:47;18.83;;;8.10;;
4986;SDS011;12674;51.500;7.552;2023-03-21T06:27:51;21.07;;;7.50;;
4986;SDS011;12674;51.500;7.552;2023-03-21T06:29:54;16.53;;;7.67;;
4986;SDS011;12674;51.500;7.552;2023-03-21T06:32:04;21.17;;;8.30;;
4986;SDS011;12674;51.500;7.552;2023-03-21T06:34:08;17.93;;;8.13;;
4986;SDS011;12674;51.500;7.552;2023-03-21T06:36:12;16.93;;;7.63;;
4986;SDS011;12674;51.500;7.552;2023-03-21T06:38:16;18.83;;;7.60;;
4986;SDS011;12674;51.500;7.552;2023-03-21T06:40:21;19.03;;;7.67;;
4986;SDS011;12674;51.500;7.552;2023-03-21T06:42:25;21.00;;;8.50;;
4986;SDS011;12674;51.500;7.552;2023-03-21T06:44:35;16.40;;;8.03;;
4986;SDS011;12674;51.500;7.552;2023-03-21T06:46:41;16.67;;;7.93;;
4986;SDS011;12674;51.500;7.552;2023-03-21T06:48:46;18.77;;;7.70;;
4986;SDS011;12674;51.500;7.552;2023-03-21T06:50:49;16.83;;;7.40;;
4986;SDS011;12674;51.500;7.552;2023-03-21T06:52:55;15.33;;;7.80;;
4986;SDS011;12674;51.500;7.552;2023-03-21T06:55:03;24.20;;;8.23;;
4986;SDS011;12674;51.500;7.552;2023-03-21T06:57:07;20.50;;;8.07;;
4986;SDS011;12674;51.500;7.552;2023-03-21T06:59:11;17.23;;;8.30;;
4986;SDS011;12674;51.500;7.552;2023-03-21T07:01:36;24.37;;;7.43;;
4986;SDS011;12674;51.500;7.552;2023-03-21T07:03:41;18.17;;;7.17;;
4986;SDS011;12674;51.500;7.552;2023-03-21T07:05:45;18.83;;;8.60;;
4986;SDS011;12674;51.500;7.552;2023-03-21T07:07:50;16.67;;;7.17;;
4986;SDS011;12674;51.500;7.552;2023-03-21T07:09:53;18.40;;;7.77;;
4986;SDS011;12674;51.500;7.552;2023-03-21T07:11:58;17.90;;;7.47;;
4986;SDS011;12674;51.500;7.552;2023-03-21T07:14:12;18.20;;;7.20;;
4986;SDS011;12674;51.500;7.552;2023-03-21T07:16:16;15.07;;;7.20;;
4986;SDS011;12674;51.500;7.552;2023-03-21T07:18:22;23.87;;;7.53;;
4986;SDS011;12674;51.500;7.552;2023-03-21T07:20:25;19.57;;;8.43;;
4986;SDS011;12674;51.500;7.552;2023-03-21T07:22:28;17.10;;;7.90;;
4986;SDS011;12674;51.500;7.552;2023-03-21T07:24:31;16.30;;;6.83;;
4986;SDS011;12674;51.500;7.552;2023-03-21T07:26:34;19.77;;;7.90;;
4986;SDS011;12674;51.500;7.552;2023-03-21T07:28:40;19.93;;;7.03;;
4986;SDS011;12674;51.500;7.552;2023-03-21T07:30:44;17.23;;;6.00;;
4986;SDS011;12674;51.500;7.552;2023-03-21T07:32:48;16.80;;;6.60;;
4986;SDS011;12674;51.500;7.552;2023-03-21T07:34:51;12.97;;;6.87;;
4986;SDS011;12674;51.500;7.552;2023-03-21T07:36:54;16.13;;;6.10;;
4986;SDS011;12674;51.500;7.552;2023-03-21T07:38:57;24.50;;;7.20;;
4986;SDS011;12674;51.500;7.552;2023-03-21T07:41:01;14.20;;;6.63;;
4986;SDS011;12674;51.500;7.552;2023-03-21T07:43:06;13.60;;;6.30;;
4986;SDS011;12674;51.500;7.552;2023-03-21T07:45:11;17.10;;;7.33;;
4986;SDS011;12674;51.500;7.552;2023-03-21T07:47:19;15.23;;;7.03;;
4986;SDS011;12674;51.500;7.552;2023-03-21T07:49:22;16.80;;;7.10;;
4986;SDS011;12674;51.500;7.552;2023-03-21T07:51:27;20.07;;;7.40;;
4986;SDS011;12674;51.500;7.552;2023-03-21T07:53:30;14.00;;;5.80;;
4986;SDS011;12674;51.500;7.552;2023-03-21T07:55:33;21.10;;;6.43;;
4986;SDS011;12674;51.500;7.552;2023-03-21T07:57:37;18.43;;;5.90;;
4986;SDS011;12674;51.500;7.552;2023-03-21T07:59:40;13.97;;;6.30;;
4986;SDS011;12674;51.500;7.552;2023-03-21T08:01:45;16.33;;;6.23;;
4986;SDS011;12674;51.500;7.552;2023-03-21T08:03:48;18.37;;;6.30;;
4986;SDS011;12674;51.500;7.552;2023-03-21T08:05:55;19.43;;;7.27;;
4986;SDS011;12674;51.500;7.552;2023-03-21T08:08:00;16.07;;;6.80;;
4986;SDS011;12674;51.500;7.552;2023-03-21T08:10:04;21.57;;;6.50;;
4986;SDS011;12674;51.500;7.552;2023-03-21T08:12:08;16.73;;;6.60;;
4986;SDS011;12674;51.500;7.552;2023-03-21T08:14:15;13.80;;;5.90;;
4986;SDS011;12674;51.500;7.552;2023-03-21T08:16:18;18.83;;;6.70;;
4986;SDS011;12674;51.500;7.552;2023-03-21T08:18:24;16.63;;;5.80;;
4986;SDS011;12674;51.500;7.552;2023-03-21T08:20:27;18.90;;;7.90;;
4986;SDS011;12674;51.500;7.552;2023-03-21T08:22:30;16.47;;;6.70;;
4986;SDS011;12674;51.500;7.552;2023-03-21T08:24:34;22.73;;;6.97;;
4986;SDS011;12674;51.500;7.552;2023-03-21T08:26:37;20.10;;;6.70;;
4986;SDS011;12674;51.500;7.552;2023-03-21T08:28:41;14.77;;;7.43;;
4986;SDS011;12674;51.500;7.552;2023-03-21T08:30:44;23.07;;;7.10;;
4986;SDS011;12674;51.500;7.552;2023-03-21T08:32:48;18.13;;;6.93;;
4986;SDS011;12674;51.500;7.552;2023-03-21T08:34:52;28.73;;;7.50;;
4986;SDS011;12674;51.500;7.552;2023-03-21T08:36:56;15.00;;;6.93;;
4986;SDS011;12674;51.500;7.552;2023-03-21T08:38:59;18.30;;;6.00;;
4986;SDS011;12674;51.500;7.552;2023-03-21T08:41:06;22.80;;;6.40;;
4986;SDS011;12674;51.500;7.552;2023-03-21T08:43:09;15.03;;;6.20;;
4986;SDS011;12674;51.500;7.552;2023-03-21T08:45:15;17.97;;;6.87;;
4986;SDS011;12674;51.500;7.552;2023-03-21T08:47:22;16.90;;;6.73;;
4986;SDS011;12674;51.500;7.552;2023-03-21T08:49:25;14.93;;;7.70;;
4986;SDS011;12674;51.500;7.552;2023-03-21T08:51:30;14.97;;;5.80;;
4986;SDS011;12674;51.500;7.552;2023-03-21T08:53:35;14.93;;;5.80;;
4986;SDS011;12674;51.500;7.552;2023-03-21T08:55:38;13.87;;;6.70;;
4986;SDS011;12674;51.500;7.552;2023-03-21T08:57:42;18.27;;;6.83;;
4986;SDS011;12674;51.500;7.552;2023-03-21T08:59:46;14.87;;;6.40;;
4986;SDS011;12674;51.500;7.552;2023-03-21T09:01:50;22.60;;;7.17;;
4986;SDS011;12674;51.500;7.552;2023-03-21T09:03:53;20.73;;;7.60;;
4986;SDS011;12674;51.500;7.552;2023-03-21T09:05:56;32.23;;;7.53;;
4986;SDS011;12674;51.500;7.552;2023-03-21T09:08:01;27.63;;;7.80;;
4986;SDS011;12674;51.500;7.552;2023-03-21T09:10:05;19.50;;;6.37;;
4986;SDS011;12674;51.500;7.552;2023-03-21T09:12:23;18.07;;;7.17;;
4986;SDS011;12674;51.500;7.552;2023-03-21T09:14:26;14.90;;;6.90;;
4986;SDS011;12674;51.500;7.552;2023-03-21T09:16:30;17.77;;;6.90;;
4986;SDS011;12674;51.500;7.552;2023-03-21T09:18:33;21.90;;;7.73;;
4986;SDS011;12674;51.500;7.552;2023-03-21T09:20:56;15.53;;;7.57;;
4986;SDS011;12674;51.500;7.552;2023-03-21T09:23:02;13.77;;;7.60;;
4986;SDS011;12674;51.500;7.552;2023-03-21T09:25:06;16.67;;;7.00;;
4986;SDS011;12674;51.500;7.552;2023-03-21T09:27:11;22.20;;;7.77;;
4986;SDS011;12674;51.500;7.552;2023-03-21T09:29:16;18.57;;;7.00;;
4986;SDS011;12674;51.500;7.552;2023-03-21T09:31:20;13.90;;;7.07;;
4986;SDS011;12674;51.500;7.552;2023-03-21T09:33:23;17.33;;;6.53;;
4986;SDS011;12674;51.500;7.552;2023-03-21T09:35:29;18.13;;;7.07;;
4986;SDS011;12674;51.500;7.552;2023-03-21T09:37:32;10.13;;;5.60;;
4986;SDS011;12674;51.500;7.552;2023-03-21T09:39:44;13.77;;;6.30;;
4986;SDS011;12674;51.500;7.552;2023-03-21T09:41:53;13.20;;;6.27;;
4986;SDS011;12674;51.500;7.552;2023-03-21T09:44:28;13.33;;;5.63;;
4986;SDS011;12674;51.500;7.552;2023-03-21T09:46:40;18.83;;;6.80;;
4986;SDS011;12674;51.500;7.552;2023-03-21T09:48:48;19.07;;;6.20;;
4986;SDS011;12674;51.500;7.552;2023-03-21T09:50:57;12.83;;;5.83;;
4986;SDS011;12674;51.500;7.552;2023-03-21T09:53:02;13.30;;;6.07;;
4986;SDS011;12674;51.500;7.552;2023-03-21T09:55:11;13.33;;;6.80;;
4986;SDS011;12674;51.500;7.552;2023-03-21T09:57:23;11.50;;;6.40;;
4986;SDS011;12674;51.500;7.552;2023-03-21T09:59:33;14.43;;;5.80;;
4986;SDS011;12674;51.500;7.552;2023-03-21T10:01:41;20.07;;;6.10;;
4986;SDS011;12674;51.500;7.552;2023-03-21T10:03:46;13.03;;;6.20;;
4986;SDS011;12674;51.500;7.552;2023-03-21T10:05:51;17.93;;;5.63;;
4986;SDS011;12674;51.500;7.552;2023-03-21T10:08:00;15.30;;;5.80;;
4986;SDS011;12674;51.500;7.552;2023-03-21T10:10:05;9.07;;;5.10;;
4986;SDS011;12674;51.500;7.552;2023-03-21T10:12:11;12.97;;;6.30;;
4986;SDS011;12674;51.500;7.552;2023-03-21T10:14:18;18.10;;;7.30;;
4986;SDS011;12674;51.500;7.552;2023-03-21T10:16:27;19.00;;;7.00;;
4986;SDS011;12674;51.500;7.552;2023-03-21T10:18:30;21.73;;;6.40;;
4986;SDS011;12674;51.500;7.552;2023-03-21T10:20:35;14.00;;;6.30;;
4986;SDS011;12674;51.500;7.552;2023-03-21T10:22:39;12.20;;;5.13;;
4986;SDS011;12674;51.500;7.552;2023-03-21T10:24:43;13.67;;;4.73;;
4986;SDS011;12674;51.500;7.552;2023-03-21T10:26:46;14.97;;;6.00;;
4986;SDS011;12674;51.500;7.552;2023-03-21T10:28:53;12.33;;;5.40;;
4986;SDS011;12674;51.500;7.552;2023-03-21T10:30:57;15.87;;;5.70;;
4986;SDS011;12674;51.500;7.552;2023-03-21T10:33:05;12.33;;;5.73;;
4986;SDS011;12674;51.500;7.552;2023-03-21T10:35:11;14.73;;;5.53;;
4986;SDS011;12674;51.500;7.552;2023-03-21T10:37:15;11.53;;;5.50;;
4986;SDS011;12674;51.500;7.552;2023-03-21T10:39:20;10.97;;;4.43;;
4986;SDS011;12674;51.500;7.552;2023-03-21T10:41:27;9.73;;;3.93;;
4986;SDS011;12674;51.500;7.552;2023-03-21T10:43:32;12.37;;;4.90;;
4986;SDS011;12674;51.500;7.552;2023-03-21T10:45:39;14.23;;;4.57;;
4986;SDS011;12674;51.500;7.552;2023-03-21T10:47:42;11.10;;;4.70;;
4986;SDS011;12674;51.500;7.552;2023-03-21T10:49:49;9.83;;;4.43;;
4986;SDS011;12674;51.500;7.552;2023-03-21T10:52:10;10.73;;;4.17;;
4986;SDS011;12674;51.500;7.552;2023-03-21T10:54:17;14.73;;;5.00;;
4986;SDS011;12674;51.500;7.552;2023-03-21T10:56:22;12.23;;;4.13;;
4986;SDS011;12674;51.500;7.552;2023-03-21T10:58:26;8.67;;;4.50;;
4986;SDS011;12674;51.500;7.552;2023-03-21T11:00:35;9.33;;;3.70;;
4986;SDS011;12674;51.500;7.552;2023-03-21T11:02:41;8.80;;;3.63;;
4986;SDS011;12674;51.500;7.552;2023-03-21T11:04:45;11.20;;;3.93;;
4986;SDS011;12674;51.500;7.552;2023-03-21T11:06:50;5.93;;;3.00;;
4986;SDS011;12674;51.500;7.552;2023-03-21T11:08:55;7.83;;;4.10;;
4986;SDS011;12674;51.500;7.552;2023-03-21T11:11:03;14.13;;;3.83;;
4986;SDS011;12674;51.500;7.552;2023-03-21T11:13:12;10.07;;;4.13;;
4986;SDS011;12674;51.500;7.552;2023-03-21T11:15:27;7.03;;;3.60;;
4986;SDS011;12674;51.500;7.552;2023-03-21T11:17:34;9.33;;;3.50;;
4986;SDS011;12674;51.500;7.552;2023-03-21T11:19:38;12.03;;;3.87;;
4986;SDS011;12674;51.500;7.552;2023-03-21T11:21:41;6.97;;;3.57;;
4986;SDS011;12674;51.500;7.552;2023-03-21T11:23:45;12.63;;;3.37;;
4986;SDS011;12674;51.500;7.552;2023-03-21T11:25:49;13.43;;;4.50;;
4986;SDS011;12674;51.500;7.552;2023-03-21T11:27:53;9.00;;;4.10;;
4986;SDS011;12674;51.500;7.552;2023-03-21T11:29:57;7.00;;;3.03;;
4986;SDS011;12674;51.500;7.552;2023-03-21T11:32:08;17.37;;;4.67;;
4986;SDS011;12674;51.500;7.552;2023-03-21T11:34:23;13.07;;;3.93;;
4986;SDS011;12674;51.500;7.552;2023-03-21T11:36:33;12.53;;;4.03;;
4986;SDS011;12674;51.500;7.552;2023-03-21T11:38:38;7.50;;;3.20;;
4986;SDS011;12674;51.500;7.552;2023-03-21T11:40:50;6.10;;;3.43;;
4986;SDS011;12674;51.500;7.552;2023-03-21T11:42:56;7.50;;;3.97;;
4986;SDS011;12674;51.500;7.552;2023-03-21T11:45:02;15.80;;;4.50;;
4986;SDS011;12674;51.500;7.552;2023-03-21T11:47:12;8.37;;;3.97;;
4986;SDS011;12674;51.500;7.552;2023-03-21T11:49:16;14.67;;;4.13;;
4986;SDS011;12674;51.500;7.552;2023-03-21T11:51:23;12.13;;;4.00;;
4986;SDS011;12674;51.500;7.552;2023-03-21T11:53:33;12.30;;;3.60;;
4986;SDS011;12674;51.500;7.552;2023-03-21T11:58:20;9.47;;;3.43;;
4986;SDS011;12674;51.500;7.552;2023-03-21T12:02:31;12.63;;;4.23;;
4986;SDS011;12674;51.500;7.552;2023-03-21T12:04:56;6.80;;;3.20;;
4986;SDS011;12674;51.500;7.552;2023-03-21T12:07:08;8.50;;;3.07;;
4986;SDS011;12674;51.500;7.552;2023-03-21T12:09:24;4.53;;;2.30;;
4986;SDS011;12674;51.500;7.552;2023-03-21T12:11:38;6.63;;;2.83;;
4986;SDS011;12674;51.500;7.552;2023-03-21T12:13:49;11.43;;;2.90;;
4986;SDS011;12674;51.500;7.552;2023-03-21T12:15:58;6.53;;;2.77;;
4986;SDS011;12674;51.500;7.552;2023-03-21T12:18:08;11.33;;;2.87;;
4986;SDS011;12674;51.500;7.552;2023-03-21T12:22:44;11.70;;;3.60;;
4986;SDS011;12674;51.500;7.552;2023-03-21T12:24:54;4.73;;;2.50;;
4986;SDS011;12674;51.500;7.552;2023-03-21T12:27:01;7.13;;;2.70;;
4986;SDS011;12674;51.500;7.552;2023-03-21T12:29:22;5.83;;;2.97;;
4986;SDS011;12674;51.500;7.552;2023-03-21T12:31:32;8.20;;;3.10;;
4986;SDS011;12674;51.500;7.552;2023-03-21T12:33:44;6.73;;;2.47;;
4986;SDS011;12674;51.500;7.552;2023-03-21T12:36:10;4.00;;;2.20;;
4986;SDS011;12674;51.500;7.552;2023-03-21T12:38:24;9.23;;;2.50;;
4986;SDS011;12674;51.500;7.552;2023-03-21T12:40:46;8.37;;;2.50;;
4986;SDS011;12674;51.500;7.552;2023-03-21T12:43:02;4.70;;;2.33;;
4986;SDS011;12674;51.500;7.552;2023-03-21T12:45:15;5.67;;;1.93;;
4986;SDS011;12674;51.500;7.552;2023-03-21T12:47:21;7.17;;;2.00;;
4986;SDS011;12674;51.500;7.552;2023-03-21T12:49:27;4.70;;;2.17;;
4986;SDS011;12674;51.500;7.552;2023-03-21T12:51:35;5.43;;;2.40;;
4986;SDS011;12674;51.500;7.552;2023-03-21T12:53:47;7.67;;;2.53;;
4986;SDS011;12674;51.500;7.552;2023-03-21T12:55:55;6.20;;;2.07;;
4986;SDS011;12674;51.500;7.552;2023-03-21T12:58:01;3.13;;;1.87;;
4986;SDS011;12674;51.500;7.552;2023-03-21T13:00:08;3.40;;;2.33;;
4986;SDS011;12674;51.500;7.552;2023-03-21T13:02:16;5.27;;;2.13;;
4986;SDS011;12674;51.500;7.552;2023-03-21T13:04:33;9.53;;;2.50;;
4986;SDS011;12674;51.500;7.552;2023-03-21T13:06:41;13.40;;;2.10;;